sensor_id;sensor_type;location;lat;lon;timestamp;P1;durP1;ratioP1;P2;durP2;ratioP2
11305;SDS011;5708;50.660;6.778;2023-12-04T00:01:24;18.92;;;9.32;;
11305;SDS011;5708;50.660;6.778;2023-12-04T00:03:51;22.20;;;9.13;;
11305;SDS011;5708;50.660;6.778;2023-12-04T00:06:16;16.33;;;8.47;;
11305;SDS011;5708;50.660;6.778;2023-12-04T00:08:41;18.43;;;9.00;;
11305;SDS011;5708;50.660;6.778;2023-12-04T00:11:06;17.63;;;8.75;;
11305;SDS011;5708;50.660;6.778;2023-12-04T00:13:32;17.77;;;9.05;;
11305;SDS011;5708;50.660;6.778;2023-12-04T00:15:58;18.45;;;8.98;;
11305;SDS011;5708;50.660;6.778;2023-12-04T00:18:23;17.27;;;8.80;;
11305;SDS011;5708;50.660;6.778;2023-12-04T00:20:48;18.63;;;9.10;;
11305;SDS011;5708;50.660;6.778;2023-12-04T00:23:13;16.20;;;8.48;;
11305;SDS011;5708;50.660;6.778;2023-12-04T00:25:39;19.57;;;8.10;;
11305;SDS011;5708;50.660;6.778;2023-12-04T00:28:04;17.60;;;8.77;;
11305;SDS011;5708;50.660;6.778;2023-12-04T00:30:29;18.13;;;9.07;;
11305;SDS011;5708;50.660;6.778;2023-12-04T00:32:54;16.10;;;7.53;;
11305;SDS011;5708;50.660;6.778;2023-12-04T00:35:20;16.08;;;8.27;;
11305;SDS011;5708;50.660;6.778;2023-12-04T00:37:45;16.60;;;8.73;;
11305;SDS011;5708;50.660;6.778;2023-12-04T00:40:10;15.93;;;7.97;;
11305;SDS011;5708;50.660;6.778;2023-12-04T00:42:35;16.92;;;8.65;;
11305;SDS011;5708;50.660;6.778;2023-12-04T00:45:01;17.23;;;8.27;;
11305;SDS011;5708;50.660;6.778;2023-12-04T00:47:26;16.48;;;8.35;;
11305;SDS011;5708;50.660;6.778;2023-12-04T00:49:52;17.53;;;8.40;;
11305;SDS011;5708;50.660;6.778;2023-12-04T00:52:17;16.67;;;7.87;;
11305;SDS011;5708;50.660;6.778;2023-12-04T00:54:45;17.33;;;8.63;;
11305;SDS011;5708;50.660;6.778;2023-12-04T00:57:10;14.77;;;7.45;;
11305;SDS011;5708;50.660;6.778;2023-12-04T00:59:35;16.90;;;8.37;;
11305;SDS011;5708;50.660;6.778;2023-12-04T01:02:01;15.13;;;8.00;;
11305;SDS011;5708;50.660;6.778;2023-12-04T01:04:26;14.77;;;7.50;;
11305;SDS011;5708;50.660;6.778;2023-12-04T01:06:51;14.38;;;7.30;;
11305;SDS011;5708;50.660;6.778;2023-12-04T01:09:20;15.07;;;7.65;;
11305;SDS011;5708;50.660;6.778;2023-12-04T01:11:49;15.98;;;7.82;;
11305;SDS011;5708;50.660;6.778;2023-12-04T01:14:14;16.77;;;7.88;;
11305;SDS011;5708;50.660;6.778;2023-12-04T01:16:39;17.33;;;8.00;;
11305;SDS011;5708;50.660;6.778;2023-12-04T01:19:05;13.50;;;7.43;;
11305;SDS011;5708;50.660;6.778;2023-12-04T01:21:30;15.73;;;7.57;;
11305;SDS011;5708;50.660;6.778;2023-12-04T01:23:55;14.00;;;7.43;;
11305;SDS011;5708;50.660;6.778;2023-12-04T01:26:21;14.80;;;7.53;;
11305;SDS011;5708;50.660;6.778;2023-12-04T01:28:46;14.23;;;7.13;;
11305;SDS011;5708;50.660;6.778;2023-12-04T01:31:11;15.15;;;7.15;;
11305;SDS011;5708;50.660;6.778;2023-12-04T01:33:36;13.10;;;6.40;;
11305;SDS011;5708;50.660;6.778;2023-12-04T01:36:02;15.83;;;7.10;;
11305;SDS011;5708;50.660;6.778;2023-12-04T01:38:27;15.85;;;6.95;;
11305;SDS011;5708;50.660;6.778;2023-12-04T01:40:52;13.80;;;7.37;;
11305;SDS011;5708;50.660;6.778;2023-12-04T01:43:17;14.33;;;7.00;;
11305;SDS011;5708;50.660;6.778;2023-12-04T01:45:43;15.55;;;6.88;;
11305;SDS011;5708;50.660;6.778;2023-12-04T01:48:09;13.90;;;6.78;;
11305;SDS011;5708;50.660;6.778;2023-12-04T01:50:35;13.32;;;6.43;;
11305;SDS011;5708;50.660;6.778;2023-12-04T01:53:01;13.45;;;6.97;;
11305;SDS011;5708;50.660;6.778;2023-12-04T01:55:27;12.63;;;6.88;;
11305;SDS011;5708;50.660;6.778;2023-12-04T01:57:53;13.02;;;6.57;;
11305;SDS011;5708;50.660;6.778;2023-12-04T02:00:19;13.35;;;6.80;;
11305;SDS011;5708;50.660;6.778;2023-12-04T02:02:46;13.00;;;6.75;;
11305;SDS011;5708;50.660;6.778;2023-12-04T02:05:11;14.32;;;6.30;;
11305;SDS011;5708;50.660;6.778;2023-12-04T02:07:37;13.25;;;6.65;;
11305;SDS011;5708;50.660;6.778;2023-12-04T02:10:02;13.02;;;6.05;;
11305;SDS011;5708;50.660;6.778;2023-12-04T02:12:28;12.75;;;6.53;;
11305;SDS011;5708;50.660;6.778;2023-12-04T02:14:53;12.18;;;6.47;;
11305;SDS011;5708;50.660;6.778;2023-12-04T02:17:19;12.97;;;5.90;;
11305;SDS011;5708;50.660;6.778;2023-12-04T02:19:44;13.57;;;6.82;;
11305;SDS011;5708;50.660;6.778;2023-12-04T02:22:10;13.30;;;6.53;;
11305;SDS011;5708;50.660;6.778;2023-12-04T02:24:35;12.63;;;6.67;;
11305;SDS011;5708;50.660;6.778;2023-12-04T02:27:37;14.55;;;6.47;;
11305;SDS011;5708;50.660;6.778;2023-12-04T02:30:01;14.20;;;6.70;;
11305;SDS011;5708;50.660;6.778;2023-12-04T02:32:28;12.70;;;6.20;;
11305;SDS011;5708;50.660;6.778;2023-12-04T02:34:53;11.32;;;5.63;;
11305;SDS011;5708;50.660;6.778;2023-12-04T02:37:19;12.52;;;6.03;;
11305;SDS011;5708;50.660;6.778;2023-12-04T02:39:45;12.05;;;6.30;;
11305;SDS011;5708;50.660;6.778;2023-12-04T02:42:12;14.18;;;6.00;;
11305;SDS011;5708;50.660;6.778;2023-12-04T02:44:38;11.20;;;5.10;;
11305;SDS011;5708;50.660;6.778;2023-12-04T02:47:03;10.83;;;5.23;;
11305;SDS011;5708;50.660;6.778;2023-12-04T02:49:29;9.32;;;4.78;;
11305;SDS011;5708;50.660;6.778;2023-12-04T02:51:54;11.93;;;5.45;;
11305;SDS011;5708;50.660;6.778;2023-12-04T02:54:19;10.70;;;5.37;;
11305;SDS011;5708;50.660;6.778;2023-12-04T02:56:44;10.47;;;5.00;;
11305;SDS011;5708;50.660;6.778;2023-12-04T02:59:10;15.67;;;7.53;;
11305;SDS011;5708;50.660;6.778;2023-12-04T03:01:35;13.00;;;5.83;;
11305;SDS011;5708;50.660;6.778;2023-12-04T03:04:00;10.47;;;5.57;;
11305;SDS011;5708;50.660;6.778;2023-12-04T03:06:25;11.60;;;6.00;;
11305;SDS011;5708;50.660;6.778;2023-12-04T03:08:50;12.17;;;5.83;;
11305;SDS011;5708;50.660;6.778;2023-12-04T03:11:16;11.65;;;5.45;;
11305;SDS011;5708;50.660;6.778;2023-12-04T03:13:41;12.63;;;5.87;;
11305;SDS011;5708;50.660;6.778;2023-12-04T03:16:14;10.33;;;5.40;;
11305;SDS011;5708;50.660;6.778;2023-12-04T03:18:39;11.10;;;5.45;;
11305;SDS011;5708;50.660;6.778;2023-12-04T03:21:04;10.07;;;4.50;;
11305;SDS011;5708;50.660;6.778;2023-12-04T03:23:31;9.45;;;4.07;;
11305;SDS011;5708;50.660;6.778;2023-12-04T03:25:56;9.97;;;4.17;;
11305;SDS011;5708;50.660;6.778;2023-12-04T03:28:21;9.63;;;4.17;;
11305;SDS011;5708;50.660;6.778;2023-12-04T03:30:46;8.10;;;4.63;;
11305;SDS011;5708;50.660;6.778;2023-12-04T03:33:12;8.50;;;4.27;;
11305;SDS011;5708;50.660;6.778;2023-12-04T03:35:37;9.82;;;4.47;;
11305;SDS011;5708;50.660;6.778;2023-12-04T03:38:02;8.93;;;4.40;;
11305;SDS011;5708;50.660;6.778;2023-12-04T03:40:27;8.23;;;4.20;;
11305;SDS011;5708;50.660;6.778;2023-12-04T03:42:52;10.77;;;4.20;;
11305;SDS011;5708;50.660;6.778;2023-12-04T03:45:18;8.03;;;3.77;;
11305;SDS011;5708;50.660;6.778;2023-12-04T03:47:43;9.43;;;4.53;;
11305;SDS011;5708;50.660;6.778;2023-12-04T03:50:08;7.22;;;3.78;;
11305;SDS011;5708;50.660;6.778;2023-12-04T03:52:33;7.30;;;3.55;;
11305;SDS011;5708;50.660;6.778;2023-12-04T03:54:59;12.20;;;4.10;;
11305;SDS011;5708;50.660;6.778;2023-12-04T03:57:24;8.53;;;4.20;;
11305;SDS011;5708;50.660;6.778;2023-12-04T03:59:49;7.53;;;3.60;;
11305;SDS011;5708;50.660;6.778;2023-12-04T04:02:14;8.00;;;3.73;;
11305;SDS011;5708;50.660;6.778;2023-12-04T04:04:39;8.75;;;4.20;;
11305;SDS011;5708;50.660;6.778;2023-12-04T04:07:05;7.70;;;3.50;;
11305;SDS011;5708;50.660;6.778;2023-12-04T04:09:30;6.80;;;3.35;;
11305;SDS011;5708;50.660;6.778;2023-12-04T04:11:56;7.65;;;3.45;;
11305;SDS011;5708;50.660;6.778;2023-12-04T04:14:21;6.70;;;3.13;;
11305;SDS011;5708;50.660;6.778;2023-12-04T04:16:46;8.27;;;3.75;;
11305;SDS011;5708;50.660;6.778;2023-12-04T04:19:11;8.23;;;3.77;;
11305;SDS011;5708;50.660;6.778;2023-12-04T04:21:40;10.70;;;4.38;;
11305;SDS011;5708;50.660;6.778;2023-12-04T04:24:05;8.93;;;3.65;;
11305;SDS011;5708;50.660;6.778;2023-12-04T04:26:31;10.18;;;4.82;;
11305;SDS011;5708;50.660;6.778;2023-12-04T04:28:56;11.20;;;5.00;;
11305;SDS011;5708;50.660;6.778;2023-12-04T04:31:21;8.90;;;4.23;;
11305;SDS011;5708;50.660;6.778;2023-12-04T04:33:46;11.13;;;4.97;;
11305;SDS011;5708;50.660;6.778;2023-12-04T04:36:11;9.97;;;4.97;;
11305;SDS011;5708;50.660;6.778;2023-12-04T04:38:38;10.63;;;4.78;;
11305;SDS011;5708;50.660;6.778;2023-12-04T04:41:03;9.82;;;4.35;;
11305;SDS011;5708;50.660;6.778;2023-12-04T04:43:29;9.13;;;4.13;;
11305;SDS011;5708;50.660;6.778;2023-12-04T04:45:54;9.13;;;4.67;;
11305;SDS011;5708;50.660;6.778;2023-12-04T04:48:19;10.13;;;4.77;;
11305;SDS011;5708;50.660;6.778;2023-12-04T04:50:45;10.25;;;5.05;;
11305;SDS011;5708;50.660;6.778;2023-12-04T04:53:10;10.10;;;5.00;;
11305;SDS011;5708;50.660;6.778;2023-12-04T04:55:35;8.35;;;3.97;;
11305;SDS011;5708;50.660;6.778;2023-12-04T04:58:00;9.17;;;4.73;;
11305;SDS011;5708;50.660;6.778;2023-12-04T05:00:26;9.95;;;4.63;;
11305;SDS011;5708;50.660;6.778;2023-12-04T05:02:51;9.70;;;4.57;;
11305;SDS011;5708;50.660;6.778;2023-12-04T05:05:16;9.30;;;4.38;;
11305;SDS011;5708;50.660;6.778;2023-12-04T05:07:41;9.53;;;4.60;;
11305;SDS011;5708;50.660;6.778;2023-12-04T05:10:07;10.75;;;4.78;;
11305;SDS011;5708;50.660;6.778;2023-12-04T05:12:32;8.82;;;4.40;;
11305;SDS011;5708;50.660;6.778;2023-12-04T05:14:57;6.40;;;2.93;;
11305;SDS011;5708;50.660;6.778;2023-12-04T05:17:22;6.00;;;2.83;;
11305;SDS011;5708;50.660;6.778;2023-12-04T05:19:48;5.22;;;2.75;;
11305;SDS011;5708;50.660;6.778;2023-12-04T05:22:13;5.57;;;2.60;;
11305;SDS011;5708;50.660;6.778;2023-12-04T05:24:38;5.90;;;2.90;;
11305;SDS011;5708;50.660;6.778;2023-12-04T05:27:03;5.07;;;2.30;;
11305;SDS011;5708;50.660;6.778;2023-12-04T05:29:29;6.53;;;2.42;;
11305;SDS011;5708;50.660;6.778;2023-12-04T05:31:54;13.40;;;5.53;;
11305;SDS011;5708;50.660;6.778;2023-12-04T05:34:19;12.60;;;6.10;;
11305;SDS011;5708;50.660;6.778;2023-12-04T05:36:44;10.80;;;5.93;;
11305;SDS011;5708;50.660;6.778;2023-12-04T05:39:10;12.00;;;6.13;;
11305;SDS011;5708;50.660;6.778;2023-12-04T05:41:35;14.30;;;6.93;;
11305;SDS011;5708;50.660;6.778;2023-12-04T05:44:00;14.05;;;7.28;;
11305;SDS011;5708;50.660;6.778;2023-12-04T05:46:26;16.02;;;7.65;;
11305;SDS011;5708;50.660;6.778;2023-12-04T05:48:51;14.07;;;7.32;;
11305;SDS011;5708;50.660;6.778;2023-12-04T05:51:16;13.57;;;7.13;;
11305;SDS011;5708;50.660;6.778;2023-12-04T05:53:41;14.50;;;7.88;;
11305;SDS011;5708;50.660;6.778;2023-12-04T05:56:07;14.23;;;7.23;;
11305;SDS011;5708;50.660;6.778;2023-12-04T05:58:34;14.40;;;7.53;;
11305;SDS011;5708;50.660;6.778;2023-12-04T06:00:59;13.25;;;7.35;;
11305;SDS011;5708;50.660;6.778;2023-12-04T06:03:24;14.60;;;7.60;;
11305;SDS011;5708;50.660;6.778;2023-12-04T06:05:49;14.57;;;7.37;;
11305;SDS011;5708;50.660;6.778;2023-12-04T06:08:14;16.57;;;8.30;;
11305;SDS011;5708;50.660;6.778;2023-12-04T06:10:40;16.23;;;7.70;;
11305;SDS011;5708;50.660;6.778;2023-12-04T06:13:05;16.08;;;8.00;;
11305;SDS011;5708;50.660;6.778;2023-12-04T06:15:31;16.67;;;7.68;;
11305;SDS011;5708;50.660;6.778;2023-12-04T06:17:56;14.57;;;7.25;;
11305;SDS011;5708;50.660;6.778;2023-12-04T06:20:21;14.43;;;7.67;;
11305;SDS011;5708;50.660;6.778;2023-12-04T06:22:46;19.40;;;8.55;;
11305;SDS011;5708;50.660;6.778;2023-12-04T06:25:12;16.85;;;8.07;;
11305;SDS011;5708;50.660;6.778;2023-12-04T06:27:37;15.48;;;8.20;;
11305;SDS011;5708;50.660;6.778;2023-12-04T06:30:04;18.45;;;8.63;;
11305;SDS011;5708;50.660;6.778;2023-12-04T06:32:29;20.65;;;10.57;;
11305;SDS011;5708;50.660;6.778;2023-12-04T06:34:55;19.80;;;10.10;;
11305;SDS011;5708;50.660;6.778;2023-12-04T06:37:20;21.00;;;10.13;;
11305;SDS011;5708;50.660;6.778;2023-12-04T06:39:45;19.25;;;9.55;;
11305;SDS011;5708;50.660;6.778;2023-12-04T06:42:13;21.35;;;10.15;;
11305;SDS011;5708;50.660;6.778;2023-12-04T06:44:38;20.15;;;9.27;;
11305;SDS011;5708;50.660;6.778;2023-12-04T06:47:04;16.85;;;8.85;;
11305;SDS011;5708;50.660;6.778;2023-12-04T06:49:30;17.92;;;9.00;;
11305;SDS011;5708;50.660;6.778;2023-12-04T06:51:55;20.08;;;9.45;;
11305;SDS011;5708;50.660;6.778;2023-12-04T06:54:20;18.67;;;9.03;;
11305;SDS011;5708;50.660;6.778;2023-12-04T06:56:45;17.77;;;8.97;;
11305;SDS011;5708;50.660;6.778;2023-12-04T06:59:11;17.77;;;9.33;;
11305;SDS011;5708;50.660;6.778;2023-12-04T07:01:36;17.23;;;9.13;;
11305;SDS011;5708;50.660;6.778;2023-12-04T07:04:01;16.57;;;8.87;;
11305;SDS011;5708;50.660;6.778;2023-12-04T07:06:26;18.23;;;9.27;;
11305;SDS011;5708;50.660;6.778;2023-12-04T07:08:51;21.17;;;9.97;;
11305;SDS011;5708;50.660;6.778;2023-12-04T07:11:17;22.13;;;11.32;;
11305;SDS011;5708;50.660;6.778;2023-12-04T07:13:42;20.92;;;11.20;;
11305;SDS011;5708;50.660;6.778;2023-12-04T07:16:08;21.30;;;10.48;;
11305;SDS011;5708;50.660;6.778;2023-12-04T07:18:33;20.15;;;11.02;;
11305;SDS011;5708;50.660;6.778;2023-12-04T07:20:58;21.93;;;11.23;;
11305;SDS011;5708;50.660;6.778;2023-12-04T07:23:23;19.93;;;11.07;;
11305;SDS011;5708;50.660;6.778;2023-12-04T07:25:48;18.37;;;10.33;;
11305;SDS011;5708;50.660;6.778;2023-12-04T07:28:14;18.92;;;10.43;;
11305;SDS011;5708;50.660;6.778;2023-12-04T07:30:39;19.07;;;10.53;;
11305;SDS011;5708;50.660;6.778;2023-12-04T07:33:04;20.90;;;11.25;;
11305;SDS011;5708;50.660;6.778;2023-12-04T07:35:30;19.45;;;10.10;;
11305;SDS011;5708;50.660;6.778;2023-12-04T07:37:55;23.30;;;11.43;;
11305;SDS011;5708;50.660;6.778;2023-12-04T07:40:20;20.15;;;10.85;;
11305;SDS011;5708;50.660;6.778;2023-12-04T07:42:47;21.42;;;11.40;;
11305;SDS011;5708;50.660;6.778;2023-12-04T07:45:13;20.23;;;10.90;;
11305;SDS011;5708;50.660;6.778;2023-12-04T07:47:38;18.27;;;9.75;;
11305;SDS011;5708;50.660;6.778;2023-12-04T07:50:05;19.35;;;10.35;;
11305;SDS011;5708;50.660;6.778;2023-12-04T07:52:30;20.83;;;10.95;;
11305;SDS011;5708;50.660;6.778;2023-12-04T07:54:55;22.33;;;10.43;;
11305;SDS011;5708;50.660;6.778;2023-12-04T07:57:21;20.40;;;9.55;;
11305;SDS011;5708;50.660;6.778;2023-12-04T07:59:46;15.45;;;9.10;;
11305;SDS011;5708;50.660;6.778;2023-12-04T08:02:11;17.67;;;9.87;;
11305;SDS011;5708;50.660;6.778;2023-12-04T08:04:36;19.00;;;9.87;;
11305;SDS011;5708;50.660;6.778;2023-12-04T08:07:02;20.08;;;9.93;;
11305;SDS011;5708;50.660;6.778;2023-12-04T08:09:27;19.05;;;10.05;;
11305;SDS011;5708;50.660;6.778;2023-12-04T08:11:52;18.20;;;9.77;;
11305;SDS011;5708;50.660;6.778;2023-12-04T08:14:17;16.30;;;8.90;;
11305;SDS011;5708;50.660;6.778;2023-12-04T08:16:43;18.48;;;10.13;;
11305;SDS011;5708;50.660;6.778;2023-12-04T08:19:08;17.93;;;8.97;;
11305;SDS011;5708;50.660;6.778;2023-12-04T08:21:33;18.70;;;9.43;;
11305;SDS011;5708;50.660;6.778;2023-12-04T08:23:58;17.73;;;8.77;;
11305;SDS011;5708;50.660;6.778;2023-12-04T08:26:24;17.38;;;8.48;;
11305;SDS011;5708;50.660;6.778;2023-12-04T08:28:50;15.98;;;7.70;;
11305;SDS011;5708;50.660;6.778;2023-12-04T08:31:15;18.48;;;9.18;;
11305;SDS011;5708;50.660;6.778;2023-12-04T08:33:41;14.98;;;7.13;;
11305;SDS011;5708;50.660;6.778;2023-12-04T08:36:07;17.25;;;8.00;;
11305;SDS011;5708;50.660;6.778;2023-12-04T08:38:32;12.93;;;6.97;;
11305;SDS011;5708;50.660;6.778;2023-12-04T08:40:57;14.77;;;7.43;;
11305;SDS011;5708;50.660;6.778;2023-12-04T08:43:23;14.07;;;6.43;;
11305;SDS011;5708;50.660;6.778;2023-12-04T08:45:48;12.02;;;6.40;;
11305;SDS011;5708;50.660;6.778;2023-12-04T08:48:14;14.25;;;7.25;;
11305;SDS011;5708;50.660;6.778;2023-12-04T08:50:39;15.57;;;7.80;;
11305;SDS011;5708;50.660;6.778;2023-12-04T08:53:05;14.80;;;7.10;;
11305;SDS011;5708;50.660;6.778;2023-12-04T08:55:30;13.68;;;7.45;;
11305;SDS011;5708;50.660;6.778;2023-12-04T08:57:56;13.30;;;7.35;;
11305;SDS011;5708;50.660;6.778;2023-12-04T09:00:21;12.30;;;6.78;;
11305;SDS011;5708;50.660;6.778;2023-12-04T09:02:47;15.10;;;7.70;;
11305;SDS011;5708;50.660;6.778;2023-12-04T09:05:12;10.88;;;5.18;;
11305;SDS011;5708;50.660;6.778;2023-12-04T09:07:38;9.85;;;4.80;;
11305;SDS011;5708;50.660;6.778;2023-12-04T09:10:06;9.52;;;4.30;;
11305;SDS011;5708;50.660;6.778;2023-12-04T09:12:32;9.75;;;4.40;;
11305;SDS011;5708;50.660;6.778;2023-12-04T09:15:02;8.68;;;4.00;;
11305;SDS011;5708;50.660;6.778;2023-12-04T09:17:30;8.57;;;3.97;;
11305;SDS011;5708;50.660;6.778;2023-12-04T09:19:55;8.63;;;4.65;;
11305;SDS011;5708;50.660;6.778;2023-12-04T09:22:21;9.52;;;4.47;;
11305;SDS011;5708;50.660;6.778;2023-12-04T09:24:46;10.27;;;5.03;;
11305;SDS011;5708;50.660;6.778;2023-12-04T09:27:11;11.50;;;5.20;;
11305;SDS011;5708;50.660;6.778;2023-12-04T09:29:37;8.93;;;3.87;;
11305;SDS011;5708;50.660;6.778;2023-12-04T09:32:03;12.35;;;4.18;;
11305;SDS011;5708;50.660;6.778;2023-12-04T09:34:28;8.70;;;4.25;;
11305;SDS011;5708;50.660;6.778;2023-12-04T09:36:53;11.87;;;5.90;;
11305;SDS011;5708;50.660;6.778;2023-12-04T09:39:19;11.23;;;4.70;;
11305;SDS011;5708;50.660;6.778;2023-12-04T09:41:44;8.85;;;4.65;;
11305;SDS011;5708;50.660;6.778;2023-12-04T09:44:10;10.20;;;4.78;;
11305;SDS011;5708;50.660;6.778;2023-12-04T09:46:36;9.27;;;4.35;;
11305;SDS011;5708;50.660;6.778;2023-12-04T09:49:02;9.82;;;4.75;;
11305;SDS011;5708;50.660;6.778;2023-12-04T09:51:28;10.05;;;4.60;;
11305;SDS011;5708;50.660;6.778;2023-12-04T09:53:53;8.90;;;4.67;;
11305;SDS011;5708;50.660;6.778;2023-12-04T09:56:20;8.90;;;4.47;;
11305;SDS011;5708;50.660;6.778;2023-12-04T09:58:46;8.75;;;4.57;;
11305;SDS011;5708;50.660;6.778;2023-12-04T10:01:14;11.63;;;4.80;;
11305;SDS011;5708;50.660;6.778;2023-12-04T10:03:40;9.40;;;4.63;;
11305;SDS011;5708;50.660;6.778;2023-12-04T10:06:06;9.68;;;4.65;;
11305;SDS011;5708;50.660;6.778;2023-12-04T10:08:33;10.73;;;4.80;;
11305;SDS011;5708;50.660;6.778;2023-12-04T10:10:58;11.53;;;5.00;;
11305;SDS011;5708;50.660;6.778;2023-12-04T10:13:24;9.80;;;4.97;;
11305;SDS011;5708;50.660;6.778;2023-12-04T10:15:50;9.68;;;4.80;;
11305;SDS011;5708;50.660;6.778;2023-12-04T10:18:28;10.15;;;4.78;;
11305;SDS011;5708;50.660;6.778;2023-12-04T10:20:57;9.48;;;4.60;;
11305;SDS011;5708;50.660;6.778;2023-12-04T10:23:23;10.18;;;4.80;;
11305;SDS011;5708;50.660;6.778;2023-12-04T10:25:59;12.13;;;4.93;;
11305;SDS011;5708;50.660;6.778;2023-12-04T10:28:25;11.68;;;4.80;;
11305;SDS011;5708;50.660;6.778;2023-12-04T10:30:51;10.68;;;4.93;;
11305;SDS011;5708;50.660;6.778;2023-12-04T10:33:17;10.07;;;4.63;;
11305;SDS011;5708;50.660;6.778;2023-12-04T10:35:43;11.50;;;5.43;;
11305;SDS011;5708;50.660;6.778;2023-12-04T10:38:09;10.65;;;5.20;;
11305;SDS011;5708;50.660;6.778;2023-12-04T10:40:35;11.18;;;5.38;;
11305;SDS011;5708;50.660;6.778;2023-12-04T10:45:42;10.93;;;5.40;;
11305;SDS011;5708;50.660;6.778;2023-12-04T10:48:07;9.50;;;5.32;;
11305;SDS011;5708;50.660;6.778;2023-12-04T10:50:33;9.82;;;4.90;;
11305;SDS011;5708;50.660;6.778;2023-12-04T10:53:00;11.80;;;5.30;;
11305;SDS011;5708;50.660;6.778;2023-12-04T10:55:26;10.82;;;4.90;;
11305;SDS011;5708;50.660;6.778;2023-12-04T10:57:51;9.18;;;4.35;;
11305;SDS011;5708;50.660;6.778;2023-12-04T11:00:17;10.95;;;4.85;;
11305;SDS011;5708;50.660;6.778;2023-12-04T11:02:43;10.10;;;5.40;;
11305;SDS011;5708;50.660;6.778;2023-12-04T11:05:15;10.63;;;5.10;;
11305;SDS011;5708;50.660;6.778;2023-12-04T11:07:44;9.00;;;4.82;;
11305;SDS011;5708;50.660;6.778;2023-12-04T11:10:10;10.70;;;4.93;;
11305;SDS011;5708;50.660;6.778;2023-12-04T11:12:36;10.38;;;4.63;;
11305;SDS011;5708;50.660;6.778;2023-12-04T11:15:05;11.55;;;6.28;;
11305;SDS011;5708;50.660;6.778;2023-12-04T11:17:30;10.18;;;5.38;;
11305;SDS011;5708;50.660;6.778;2023-12-04T11:20:00;12.50;;;6.03;;
11305;SDS011;5708;50.660;6.778;2023-12-04T11:22:27;10.48;;;5.25;;
11305;SDS011;5708;50.660;6.778;2023-12-04T11:24:52;11.63;;;5.65;;
11305;SDS011;5708;50.660;6.778;2023-12-04T11:27:18;8.10;;;4.65;;
11305;SDS011;5708;50.660;6.778;2023-12-04T11:29:44;12.55;;;6.22;;
11305;SDS011;5708;50.660;6.778;2023-12-04T11:32:16;9.02;;;5.20;;
11305;SDS011;5708;50.660;6.778;2023-12-04T11:34:49;14.25;;;5.65;;
11305;SDS011;5708;50.660;6.778;2023-12-04T11:37:14;12.48;;;6.07;;
11305;SDS011;5708;50.660;6.778;2023-12-04T11:39:39;14.47;;;8.17;;
11305;SDS011;5708;50.660;6.778;2023-12-04T11:42:08;18.60;;;8.60;;
11305;SDS011;5708;50.660;6.778;2023-12-04T11:44:34;16.67;;;8.90;;
11305;SDS011;5708;50.660;6.778;2023-12-04T11:47:03;17.98;;;9.73;;
11305;SDS011;5708;50.660;6.778;2023-12-04T11:49:30;18.75;;;9.85;;
11305;SDS011;5708;50.660;6.778;2023-12-04T11:51:56;16.23;;;9.77;;
11305;SDS011;5708;50.660;6.778;2023-12-04T11:54:21;17.48;;;10.23;;
11305;SDS011;5708;50.660;6.778;2023-12-04T11:59:39;15.02;;;9.07;;
11305;SDS011;5708;50.660;6.778;2023-12-04T12:02:08;21.15;;;10.85;;
11305;SDS011;5708;50.660;6.778;2023-12-04T12:04:33;20.98;;;11.57;;
11305;SDS011;5708;50.660;6.778;2023-12-04T12:06:59;20.08;;;10.82;;
11305;SDS011;5708;50.660;6.778;2023-12-04T12:09:27;19.67;;;10.43;;
11305;SDS011;5708;50.660;6.778;2023-12-04T12:11:52;19.52;;;10.18;;
11305;SDS011;5708;50.660;6.778;2023-12-04T12:14:20;23.47;;;11.23;;
11305;SDS011;5708;50.660;6.778;2023-12-04T12:16:45;22.67;;;10.75;;
11305;SDS011;5708;50.660;6.778;2023-12-04T12:19:11;20.33;;;11.40;;
11305;SDS011;5708;50.660;6.778;2023-12-04T12:21:36;21.60;;;11.50;;
11305;SDS011;5708;50.660;6.778;2023-12-04T12:24:01;20.43;;;10.37;;
11305;SDS011;5708;50.660;6.778;2023-12-04T12:26:27;21.65;;;12.07;;
11305;SDS011;5708;50.660;6.778;2023-12-04T12:28:53;19.60;;;10.80;;
11305;SDS011;5708;50.660;6.778;2023-12-04T12:31:18;22.33;;;11.83;;
11305;SDS011;5708;50.660;6.778;2023-12-04T12:33:43;21.35;;;10.85;;
11305;SDS011;5708;50.660;6.778;2023-12-04T12:36:09;21.40;;;11.70;;
11305;SDS011;5708;50.660;6.778;2023-12-04T12:38:34;20.90;;;11.20;;
11305;SDS011;5708;50.660;6.778;2023-12-04T12:41:00;22.48;;;12.07;;
11305;SDS011;5708;50.660;6.778;2023-12-04T12:43:27;21.33;;;10.85;;
11305;SDS011;5708;50.660;6.778;2023-12-04T12:45:52;19.50;;;11.10;;
11305;SDS011;5708;50.660;6.778;2023-12-04T12:48:17;21.23;;;11.30;;
11305;SDS011;5708;50.660;6.778;2023-12-04T12:50:43;25.23;;;11.73;;
11305;SDS011;5708;50.660;6.778;2023-12-04T12:53:10;19.90;;;9.77;;
11305;SDS011;5708;50.660;6.778;2023-12-04T12:55:40;21.63;;;11.02;;
11305;SDS011;5708;50.660;6.778;2023-12-04T12:58:05;20.90;;;11.48;;
11305;SDS011;5708;50.660;6.778;2023-12-04T13:00:32;22.67;;;12.65;;
11305;SDS011;5708;50.660;6.778;2023-12-04T13:02:57;22.50;;;11.38;;
11305;SDS011;5708;50.660;6.778;2023-12-04T13:05:22;21.47;;;11.17;;
11305;SDS011;5708;50.660;6.778;2023-12-04T13:07:48;21.93;;;11.77;;
11305;SDS011;5708;50.660;6.778;2023-12-04T13:10:13;20.65;;;11.40;;
11305;SDS011;5708;50.660;6.778;2023-12-04T13:12:38;20.75;;;11.10;;
11305;SDS011;5708;50.660;6.778;2023-12-04T13:15:03;21.10;;;11.80;;
11305;SDS011;5708;50.660;6.778;2023-12-04T13:17:29;21.70;;;11.48;;
11305;SDS011;5708;50.660;6.778;2023-12-04T13:19:54;20.88;;;10.73;;
11305;SDS011;5708;50.660;6.778;2023-12-04T13:22:19;25.27;;;10.67;;
11305;SDS011;5708;50.660;6.778;2023-12-04T13:24:44;21.70;;;11.07;;
11305;SDS011;5708;50.660;6.778;2023-12-04T13:27:10;19.30;;;10.77;;
11305;SDS011;5708;50.660;6.778;2023-12-04T13:29:36;21.23;;;10.90;;
11305;SDS011;5708;50.660;6.778;2023-12-04T13:32:01;20.95;;;11.13;;
11305;SDS011;5708;50.660;6.778;2023-12-04T13:34:26;18.13;;;10.00;;
11305;SDS011;5708;50.660;6.778;2023-12-04T13:36:53;20.38;;;9.73;;
11305;SDS011;5708;50.660;6.778;2023-12-04T13:39:18;16.70;;;9.60;;
11305;SDS011;5708;50.660;6.778;2023-12-04T13:42:06;19.48;;;10.27;;
11305;SDS011;5708;50.660;6.778;2023-12-04T13:44:50;19.05;;;10.75;;
11305;SDS011;5708;50.660;6.778;2023-12-04T13:47:16;19.73;;;10.85;;
11305;SDS011;5708;50.660;6.778;2023-12-04T13:49:41;22.00;;;10.70;;
11305;SDS011;5708;50.660;6.778;2023-12-04T13:52:07;18.97;;;9.67;;
11305;SDS011;5708;50.660;6.778;2023-12-04T13:54:33;21.73;;;11.20;;
11305;SDS011;5708;50.660;6.778;2023-12-04T13:57:12;19.15;;;10.80;;
11305;SDS011;5708;50.660;6.778;2023-12-04T13:59:52;20.08;;;9.73;;
11305;SDS011;5708;50.660;6.778;2023-12-04T14:02:18;17.88;;;10.02;;
11305;SDS011;5708;50.660;6.778;2023-12-04T14:04:43;19.83;;;10.93;;
11305;SDS011;5708;50.660;6.778;2023-12-04T14:07:08;20.13;;;9.68;;
11305;SDS011;5708;50.660;6.778;2023-12-04T14:09:34;18.23;;;10.25;;
11305;SDS011;5708;50.660;6.778;2023-12-04T14:12:00;18.25;;;10.48;;
11305;SDS011;5708;50.660;6.778;2023-12-04T14:14:25;17.70;;;9.60;;
11305;SDS011;5708;50.660;6.778;2023-12-04T14:16:50;20.60;;;9.52;;
11305;SDS011;5708;50.660;6.778;2023-12-04T14:19:17;19.17;;;9.50;;
11305;SDS011;5708;50.660;6.778;2023-12-04T14:21:46;15.18;;;9.02;;
11305;SDS011;5708;50.660;6.778;2023-12-04T14:24:13;18.23;;;9.55;;
11305;SDS011;5708;50.660;6.778;2023-12-04T14:26:38;17.42;;;9.45;;
11305;SDS011;5708;50.660;6.778;2023-12-04T14:29:03;14.93;;;7.97;;
11305;SDS011;5708;50.660;6.778;2023-12-04T14:31:28;15.18;;;7.93;;
11305;SDS011;5708;50.660;6.778;2023-12-04T14:33:54;16.45;;;8.88;;
11305;SDS011;5708;50.660;6.778;2023-12-04T14:36:19;17.05;;;8.63;;
11305;SDS011;5708;50.660;6.778;2023-12-04T14:38:45;16.47;;;7.70;;
11305;SDS011;5708;50.660;6.778;2023-12-04T14:41:10;14.23;;;8.07;;
11305;SDS011;5708;50.660;6.778;2023-12-04T14:43:35;16.20;;;8.38;;
11305;SDS011;5708;50.660;6.778;2023-12-04T14:46:01;13.43;;;7.63;;